Terminal Aerodrome Forecast
Issued by NWS

Home | Current Version | Previous Version | Text Only | Print | Product List | Glossary On
Versions: 1 2 3 4 5 6 7 8 9 10 11 12 13 14 15 16 17 18
000
FTUS41 KBGM 211700
TAFRME
TAF
KRME 211740Z 2118/2218 VRB03KT P6SM SCT018
      TEMPO 2120/2123 4SM -SHRA OVC018
     FM220500 VRB02KT 4SM BR BKN012
      TEMPO 2209/2213 2SM BR BKN009
     FM221500 14003KT P6SM BKN020=

USA.gov is the U.S. government's official web portal to all federal, state and local government web resources and services.